Weather at Meerbeek Heliport

Public forecast

Using degrees Celsius for public forecast. Weather courtesy of forecast.io.

Closest aviation weather report (METAR) to Meerbeek Heliport

Closest report is Brussels Airport, 4.6 nm (8.5 km) WNW.

2024/07/23 02:50 (retrieved 31 minutes ago)

EBBR 230250Z 19006KT 9999 FEW043 18/16 Q1016 BECMG SCT008 BKN013

Closest aviation forecast (TAF) to Meerbeek Heliport

Forecast is more than 12 hours old.

Closest forecast is Woensdrecht Air Base, 35.9 nm (66.4 km) NNW.

2024/07/22 09:03 (retrieved 18 hours ago)

TAF EHWO 220830Z 2209/2221 24010KT 9999 SCT018 BECMG 2209/2211 SCT025 TEMPO 2219/2221 SCT015